Time;durP1;ratioP1;P1;durP2;ratioP2;P2;SDS_P1;SDS_P2;PMS_P1;PMS_P2;Temp;Humidity;BMP_temperature;BMP_pressure;BME280_temperature;BME280_humidity;BME280_pressure;Samples;Min_cycle;Max_cycle;Signal;HPM_P1;HPM_P2
2021/12/03 00:01:39;;;;;;;79.45;43.60;;;;;;;-1.17;98.08;100542.47;5029910;28;20045;-47
2021/12/03 00:04:05;;;;;;;77.22;43.13;;;;;;;-1.26;97.89;100554.06;5030502;28;20053;-49
2021/12/03 00:06:36;;;;;;;77.30;41.53;;;;;;;-1.18;98.43;100551.06;5030507;28;20446;-45
2021/12/03 00:09:03;;;;;;;80.47;43.90;;;;;;;-1.17;98.86;100542.47;5030232;28;20049;-47
2021/12/03 00:11:30;;;;;;;84.82;44.90;;;;;;;-1.20;98.90;100543.44;5030462;28;20092;-46
2021/12/03 00:13:57;;;;;;;79.82;42.45;;;;;;;-1.20;98.54;100558.84;5030385;28;20108;-50
2021/12/03 00:16:23;;;;;;;80.85;43.50;;;;;;;-1.10;98.15;100554.88;5030304;28;20491;-44
2021/12/03 00:18:50;;;;;;;84.93;44.33;;;;;;;-0.92;98.40;100547.06;5029758;28;20124;-46
2021/12/03 00:21:17;;;;;;;85.05;45.50;;;;;;;-0.89;99.00;100546.88;5030074;28;20132;-45
2021/12/03 00:23:46;;;;;;;83.18;44.90;;;;;;;-0.91;98.34;100546.97;5029860;28;20049;-47
2021/12/03 00:26:12;;;;;;;85.13;45.88;;;;;;;-0.88;98.73;100544.25;5031073;28;20103;-44
2021/12/03 00:28:40;;;;;;;85.80;44.60;;;;;;;-0.86;98.86;100542.41;5033642;28;20578;-45
2021/12/03 00:31:08;;;;;;;78.82;42.78;;;;;;;-0.79;98.39;100540.34;5031270;28;20476;-49
2021/12/03 00:33:36;;;;;;;81.45;43.78;;;;;;;-0.74;98.78;100540.91;5033700;28;20084;-48
2021/12/03 00:36:06;;;;;;;91.18;46.75;;;;;;;-0.65;98.41;100537.81;5033869;28;20053;-47
2021/12/03 00:38:38;;;;;;;86.10;46.00;;;;;;;-0.51;98.41;100547.31;5033637;28;20056;-46
2021/12/03 00:41:08;;;;;;;86.85;44.40;;;;;;;-0.49;98.53;100558.34;5032369;28;20080;-44
2021/12/03 00:43:37;;;;;;;88.03;46.22;;;;;;;-0.34;98.77;100547.16;5033999;28;20045;-48
2021/12/03 00:46:06;;;;;;;88.85;45.65;;;;;;;-0.38;98.94;100555.97;5033837;28;20057;-45
2021/12/03 00:48:34;;;;;;;84.95;45.05;;;;;;;-0.36;98.66;100552.41;5033711;28;20053;-46
2021/12/03 00:51:00;;;;;;;79.05;43.65;;;;;;;-0.20;98.57;100552.34;5034250;28;20129;-45
2021/12/03 00:53:28;;;;;;;89.55;44.65;;;;;;;-0.10;98.41;100560.34;5034167;28;20196;-47
2021/12/03 00:55:54;;;;;;;84.45;45.13;;;;;;;-0.08;98.02;100564.50;5034119;28;20085;-46
2021/12/03 00:58:22;;;;;;;91.03;45.53;;;;;;;-0.05;98.22;100576.34;5033575;28;20092;-47
2021/12/03 01:00:49;;;;;;;87.30;43.80;;;;;;;0.00;98.48;100575.13;5033699;28;20149;-51
2021/12/03 01:03:16;;;;;;;81.25;42.45;;;;;;;-0.01;97.76;100568.38;5032705;28;20132;-48
2021/12/03 01:05:43;;;;;;;78.97;42.35;;;;;;;-0.12;97.56;100562.19;5033134;28;20108;-45
2021/12/03 01:08:10;;;;;;;77.07;39.45;;;;;;;-0.10;97.96;100565.50;5032967;28;20189;-44
2021/12/03 01:10:37;;;;;;;73.88;40.13;;;;;;;-0.01;97.32;100560.66;5033443;28;20268;-46
2021/12/03 01:13:04;;;;;;;75.63;39.28;;;;;;;-0.02;97.40;100565.88;5032964;28;20084;-48
2021/12/03 01:15:36;;;;;;;73.75;38.85;;;;;;;-0.03;96.94;100574.50;5033424;28;20081;-45
2021/12/03 01:18:05;;;;;;;70.35;39.20;;;;;;;0.09;97.37;100570.38;5032990;28;20155;-49
2021/12/03 01:20:32;;;;;;;72.07;39.08;;;;;;;0.01;97.67;100581.09;5032392;28;20135;-44
2021/12/03 01:23:00;;;;;;;76.03;39.17;;;;;;;0.00;97.07;100582.06;5031445;28;20096;-44
2021/12/03 01:25:27;;;;;;;76.82;40.15;;;;;;;0.02;97.32;100581.94;5031272;28;20128;-44
2021/12/03 01:27:55;;;;;;;77.72;38.60;;;;;;;-0.03;97.64;100584.81;5031340;28;20149;-43
2021/12/03 01:30:24;;;;;;;78.28;37.42;;;;;;;-0.03;97.45;100577.91;5031435;28;20053;-45
2021/12/03 01:32:53;;;;;;;70.68;36.50;;;;;;;-0.03;97.44;100585.63;5031562;28;20136;-47
2021/12/03 01:35:20;;;;;;;68.85;35.92;;;;;;;-0.09;97.09;100580.84;5031604;28;20099;-44
2021/12/03 01:37:48;;;;;;;67.25;36.85;;;;;;;-0.24;97.89;100583.47;5051856;23;20160;-48
2021/12/03 01:40:17;;;;;;;74.18;35.90;;;;;;;-0.31;98.21;100582.16;5030817;28;20107;-49
2021/12/03 01:42:44;;;;;;;74.95;36.20;;;;;;;-0.35;97.68;100584.06;5033205;28;20045;-47
2021/12/03 01:45:14;;;;;;;67.47;36.88;;;;;;;-0.32;98.12;100590.78;5035200;28;20111;-50
2021/12/03 01:47:42;;;;;;;68.65;36.45;;;;;;;-0.37;98.48;100584.16;5033112;28;20081;-47
2021/12/03 01:50:11;;;;;;;67.55;36.50;;;;;;;-0.35;98.34;100584.91;5032910;28;20050;-47
2021/12/03 01:52:38;;;;;;;66.35;35.80;;;;;;;-0.31;98.11;100579.59;5032978;28;20460;-47
2021/12/03 01:55:07;;;;;;;69.45;36.45;;;;;;;-0.42;98.47;100582.75;5032804;28;20053;-51
2021/12/03 01:57:34;;;;;;;71.75;35.30;;;;;;;-0.52;98.43;100587.63;5033327;28;20123;-47
2021/12/03 02:00:01;;;;;;;69.40;34.50;;;;;;;-0.53;97.96;100603.13;5032939;28;20128;-50
2021/12/03 02:02:28;;;;;;;64.10;34.60;;;;;;;-0.47;98.31;100595.88;5032813;28;20470;-52
2021/12/03 02:04:58;;;;;;;62.92;32.10;;;;;;;-0.40;98.67;100592.03;5032836;28;20126;-49
2021/12/03 02:07:26;;;;;;;60.40;32.10;;;;;;;-0.23;98.80;100605.69;5032683;28;20045;-48
2021/12/03 02:09:53;;;;;;;61.67;31.38;;;;;;;-0.20;98.42;100602.94;5032955;28;20123;-47
2021/12/03 02:12:20;;;;;;;63.63;33.05;;;;;;;-0.15;98.28;100601.78;5032870;28;20263;-50
2021/12/03 02:14:46;;;;;;;60.85;32.38;;;;;;;-0.03;98.63;100595.09;5032647;28;20128;-50
2021/12/03 02:17:13;;;;;;;65.95;32.30;;;;;;;-0.04;98.98;100601.16;5032771;28;20435;-49
2021/12/03 02:19:43;;;;;;;66.22;32.30;;;;;;;0.11;98.02;100599.41;5032363;28;20706;-48
2021/12/03 02:22:14;;;;;;;64.45;31.85;;;;;;;0.15;97.99;100601.72;5032910;28;20136;-47
2021/12/03 02:24:40;;;;;;;60.22;33.20;;;;;;;0.29;98.16;100609.44;5032514;28;20053;-50
2021/12/03 02:27:07;;;;;;;67.03;32.67;;;;;;;0.27;97.92;100608.72;5032448;28;20057;-48
2021/12/03 02:29:34;;;;;;;64.68;33.65;;;;;;;0.39;97.68;100602.03;5032295;28;20128;-52
2021/12/03 02:32:00;;;;;;;61.45;32.55;;;;;;;0.39;97.68;100601.19;5032417;28;20416;-49
2021/12/03 02:34:27;;;;;;;66.53;31.90;;;;;;;0.46;97.97;100598.16;5031899;28;20132;-48
2021/12/03 02:36:54;;;;;;;60.03;31.60;;;;;;;0.46;97.89;100592.19;5032366;28;20075;-52
2021/12/03 02:39:24;;;;;;;58.08;31.48;;;;;;;0.53;97.39;100593.44;5032233;28;20145;-47
2021/12/03 02:41:51;;;;;;;68.70;32.45;;;;;;;0.57;97.26;100600.06;5032505;28;20487;-49
2021/12/03 02:44:18;;;;;;;66.68;31.60;;;;;;;0.54;97.30;100606.22;5032256;28;20060;-48
2021/12/03 02:46:44;;;;;;;59.22;30.63;;;;;;;0.73;97.24;100611.09;5032034;28;20081;-48
2021/12/03 02:49:14;;;;;;;62.53;31.02;;;;;;;0.71;96.94;100612.09;5031045;28;20137;-48
2021/12/03 02:51:41;;;;;;;60.13;30.05;;;;;;;0.62;97.28;100598.88;5032443;28;20084;-49
2021/12/03 02:54:08;;;;;;;59.30;31.00;;;;;;;0.58;97.62;100592.25;5031752;28;20099;-47
2021/12/03 02:56:37;;;;;;;57.13;29.92;;;;;;;0.57;98.06;100600.88;5031850;28;20092;-50
2021/12/03 02:59:04;;;;;;;58.65;31.00;;;;;;;0.58;97.90;100591.41;5031831;28;20081;-50
2021/12/03 03:01:31;;;;;;;59.97;30.95;;;;;;;0.56;98.18;100588.94;5031626;28;20095;-48
2021/12/03 03:03:57;;;;;;;56.83;29.63;;;;;;;0.62;98.11;100590.31;5031663;28;20128;-49
2021/12/03 03:06:24;;;;;;;55.17;30.58;;;;;;;0.62;97.92;100593.72;5031875;28;20128;-49
2021/12/03 03:08:51;;;;;;;52.58;29.88;;;;;;;0.57;97.50;100595.75;5031343;28;20115;-50
2021/12/03 03:11:18;;;;;;;55.50;30.15;;;;;;;0.58;97.47;100601.72;5031660;28;20417;-48
2021/12/03 03:13:46;;;;;;;55.08;29.40;;;;;;;0.58;97.34;100599.97;5031635;28;20457;-50
2021/12/03 03:16:15;;;;;;;56.20;30.85;;;;;;;0.54;97.73;100610.53;5023293;28;20088;-48
2021/12/03 03:18:42;;;;;;;56.92;30.40;;;;;;;0.62;97.39;100608.34;5031337;28;20132;-48
2021/12/03 03:21:09;;;;;;;59.90;29.63;;;;;;;0.56;97.37;100608.69;5031710;28;20456;-50
2021/12/03 03:23:37;;;;;;;56.58;29.95;;;;;;;0.60;97.76;100603.28;5031801;28;20049;-48
2021/12/03 03:26:04;;;;;;;47.63;28.65;;;;;;;0.52;97.06;100597.75;5031889;28;20076;-49
2021/12/03 03:28:31;;;;;;;51.28;29.60;;;;;;;0.51;97.57;100606.41;5031101;28;20089;-48
2021/12/03 03:31:00;;;;;;;56.42;31.08;;;;;;;0.49;97.80;100610.00;5031571;28;20502;-48
2021/12/03 03:33:28;;;;;;;58.33;30.52;;;;;;;0.51;97.43;100605.56;5031510;28;20053;-50
2021/12/03 03:35:55;;;;;;;56.90;29.67;;;;;;;0.56;97.77;100603.56;5031574;28;20080;-49
2021/12/03 03:38:22;;;;;;;58.03;29.20;;;;;;;0.61;97.88;100598.94;5031109;28;20085;-49
2021/12/03 03:40:49;;;;;;;54.42;28.55;;;;;;;0.61;98.19;100599.78;5031372;28;20124;-46
2021/12/03 03:43:18;;;;;;;52.25;27.90;;;;;;;0.70;97.62;100589.84;5031073;28;20081;-48
2021/12/03 03:45:45;;;;;;;49.60;26.42;;;;;;;0.76;97.74;100590.31;5031463;28;20085;-50
2021/12/03 03:48:14;;;;;;;50.00;26.77;;;;;;;0.81;97.53;100596.00;5031342;28;20053;-52
2021/12/03 03:50:41;;;;;;;50.40;26.33;;;;;;;0.79;98.16;100586.72;5031057;28;20508;-50
2021/12/03 03:53:08;;;;;;;50.63;26.92;;;;;;;0.93;97.18;100584.13;5031311;28;20133;-52
2021/12/03 03:55:35;;;;;;;51.30;25.90;;;;;;;0.94;97.24;100578.88;5031114;28;20339;-49
2021/12/03 03:58:03;;;;;;;51.70;27.10;;;;;;;0.95;96.52;100565.03;5030804;28;20133;-51
2021/12/03 04:00:34;;;;;;;49.15;26.48;;;;;;;0.93;96.78;100574.63;5032635;28;20144;-51
2021/12/03 04:03:01;;;;;;;57.03;27.25;;;;;;;0.85;96.68;100584.59;5035288;28;20462;-48
2021/12/03 04:05:30;;;;;;;48.10;26.77;;;;;;;0.85;96.96;100578.59;5034803;28;20128;-52
2021/12/03 04:07:56;;;;;;;54.67;26.58;;;;;;;0.88;96.30;100558.63;5034332;28;20482;-52
2021/12/03 04:10:23;;;;;;;50.53;25.02;;;;;;;0.90;96.74;100558.53;5034613;28;20139;-52
2021/12/03 04:12:51;;;;;;;52.35;26.67;;;;;;;0.93;96.18;100555.78;5034780;28;20161;-49
2021/12/03 04:15:17;;;;;;;47.55;25.75;;;;;;;0.89;96.27;100559.47;5034449;28;20115;-53
2021/12/03 04:17:44;;;;;;;49.45;25.88;;;;;;;0.91;96.52;100566.19;5034658;28;20132;-50
2021/12/03 04:20:13;;;;;;;48.65;26.75;;;;;;;0.87;96.95;100564.72;5034680;28;20136;-51
2021/12/03 04:22:43;;;;;;;45.97;24.20;;;;;;;1.04;96.10;100563.63;5034388;28;20092;-48
2021/12/03 04:25:13;;;;;;;45.45;24.15;;;;;;;0.94;96.65;100554.84;5034528;28;20049;-51
2021/12/03 04:27:40;;;;;;;42.45;23.95;;;;;;;0.97;96.54;100555.47;5034235;28;20452;-50
2021/12/03 04:30:11;;;;;;;42.42;22.95;;;;;;;1.12;96.52;100555.41;5034193;28;20175;-48
2021/12/03 04:32:38;;;;;;;43.35;23.17;;;;;;;1.08;96.67;100544.47;5034474;28;20087;-52
2021/12/03 04:35:06;;;;;;;40.00;21.73;;;;;;;1.08;96.09;100547.06;5034574;28;20132;-49
2021/12/03 04:37:33;;;;;;;38.83;21.70;;;;;;;1.10;96.17;100546.97;5034406;28;20482;-48
2021/12/03 04:40:02;;;;;;;36.95;21.15;;;;;;;1.16;96.07;100554.31;5034209;28;20144;-52
2021/12/03 04:42:28;;;;;;;41.25;21.30;;;;;;;1.12;96.37;100552.84;5033911;28;20092;-51
2021/12/03 04:44:55;;;;;;;37.58;22.02;;;;;;;1.24;95.89;100554.66;5034097;28;20479;-51
2021/12/03 04:47:22;;;;;;;41.58;21.83;;;;;;;1.15;95.62;100550.91;5034240;28;20132;-52
2021/12/03 04:49:48;;;;;;;39.47;21.30;;;;;;;1.27;95.91;100550.13;5033900;28;20132;-53
2021/12/03 04:52:15;;;;;;;36.83;21.45;;;;;;;1.24;95.32;100547.75;5034553;28;20092;-50
2021/12/03 04:54:42;;;;;;;41.17;22.05;;;;;;;1.25;95.42;100541.66;5033902;28;20045;-52
2021/12/03 04:57:10;;;;;;;37.55;20.58;;;;;;;1.32;95.58;100540.34;5033849;28;20547;-52
2021/12/03 04:59:37;;;;;;;42.28;22.55;;;;;;;1.47;95.09;100547.97;5034003;28;20132;-54
2021/12/03 05:02:04;;;;;;;43.78;22.60;;;;;;;1.67;94.89;100543.19;5034177;28;20402;-50
2021/12/03 05:04:37;;;;;;;45.55;24.13;;;;;;;1.75;94.82;100544.44;5033794;28;20049;-50
2021/12/03 05:07:16;;;;;;;41.22;23.35;;;;;;;1.77;94.20;100538.25;5033959;28;20096;-52
2021/12/03 05:09:43;;;;;;;48.28;23.55;;;;;;;1.77;94.30;100550.31;5030399;28;20057;-52
2021/12/03 05:12:11;;;;;;;47.72;23.60;;;;;;;1.70;94.67;100549.06;5038941;28;20587;-49
2021/12/03 05:14:38;;;;;;;47.70;22.83;;;;;;;1.70;95.12;100551.66;5032466;28;20137;-52
2021/12/03 05:17:05;;;;;;;42.85;22.40;;;;;;;1.71;95.06;100556.72;5033002;28;20137;-49
2021/12/03 05:19:32;;;;;;;46.22;22.08;;;;;;;1.62;95.17;100552.97;5038421;28;20140;-55
2021/12/03 05:21:58;;;;;;;45.08;22.98;;;;;;;1.59;95.54;100558.34;5052455;28;20136;-53
2021/12/03 05:24:25;;;;;;;42.00;23.55;;;;;;;1.80;95.26;100557.84;5052325;28;20132;-57
2021/12/03 05:26:52;;;;;;;40.20;22.30;;;;;;;1.70;95.16;100567.13;5053111;28;20132;-50
2021/12/03 05:29:20;;;;;;;41.38;20.73;;;;;;;1.70;95.25;100567.13;5052085;28;20135;-57
2021/12/03 05:31:46;;;;;;;36.63;19.92;;;;;;;1.67;95.00;100566.41;5052197;28;20128;-49
2021/12/03 05:34:15;;;;;;;33.80;19.90;;;;;;;1.58;94.96;100563.59;5052264;28;20128;-53
2021/12/03 05:36:43;;;;;;;37.63;19.55;;;;;;;1.53;95.31;100556.16;5052162;28;20084;-49
2021/12/03 05:39:10;;;;;;;40.25;20.02;;;;;;;1.53;95.18;100551.00;5048287;28;20473;-50
2021/12/03 05:41:36;;;;;;;36.05;19.13;;;;;;;1.56;95.25;100555.94;5030148;28;20445;-53
2021/12/03 05:44:04;;;;;;;37.83;19.50;;;;;;;1.58;95.40;100558.44;5031079;28;20553;-51
2021/12/03 05:46:32;;;;;;;41.97;20.52;;;;;;;1.59;95.22;100554.94;5030899;28;20140;-53
2021/12/03 05:48:59;;;;;;;34.47;18.88;;;;;;;1.57;95.39;100560.19;5029685;28;20139;-51
2021/12/03 05:51:28;;;;;;;33.78;18.75;;;;;;;1.65;94.95;100557.09;5043229;28;20136;-54
2021/12/03 05:53:55;;;;;;;35.58;18.50;;;;;;;1.69;95.17;100562.88;5033312;28;20060;-50
2021/12/03 05:56:22;;;;;;;39.38;18.67;;;;;;;1.61;95.27;100561.63;5029723;28;20140;-51
2021/12/03 05:58:49;;;;;;;43.13;18.95;;;;;;;1.63;95.19;100559.78;5030134;28;20156;-52
2021/12/03 06:01:18;;;;;;;43.58;19.98;;;;;;;1.77;95.16;100563.22;5028513;28;20061;-54
2021/12/03 06:03:47;;;;;;;35.58;19.52;;;;;;;1.82;94.76;100561.16;5030407;28;20135;-50
2021/12/03 06:06:14;;;;;;;36.67;19.10;;;;;;;1.80;94.92;100563.84;5030708;28;20045;-50
2021/12/03 06:08:41;;;;;;;35.40;17.77;;;;;;;1.91;94.34;100556.19;5030368;28;20128;-57
2021/12/03 06:11:08;;;;;;;34.58;18.67;;;;;;;1.92;94.05;100564.75;5048417;28;20045;-50
2021/12/03 06:13:38;;;;;;;31.70;16.23;;;;;;;1.99;94.13;100555.69;5051981;28;20128;-49
2021/12/03 06:16:08;;;;;;;32.85;17.52;;;;;;;2.01;93.73;100566.72;5051529;28;20087;-52
2021/12/03 06:18:36;;;;;;;41.05;22.20;;;;;;;1.99;93.83;100568.59;5051654;28;20091;-52
2021/12/03 06:21:06;;;;;;;34.83;19.48;;;;;;;2.12;93.71;100569.41;5033018;28;20073;-47
2021/12/03 06:23:34;;;;;;;28.77;16.58;;;;;;;2.04;94.18;100566.53;5030866;28;20483;-51
2021/12/03 06:26:02;;;;;;;35.00;17.17;;;;;;;2.01;94.34;100571.88;5031206;28;20064;-49
2021/12/03 06:28:30;;;;;;;34.33;17.42;;;;;;;2.11;94.30;100575.50;5031455;28;20080;-48
2021/12/03 06:30:58;;;;;;;33.10;18.85;;;;;;;2.08;93.78;100567.16;5039957;28;20052;-50
2021/12/03 06:33:25;;;;;;;32.58;16.17;;;;;;;2.17;93.73;100562.19;5051117;28;20041;-49
2021/12/03 06:35:53;;;;;;;30.40;17.50;;;;;;;2.12;94.04;100566.84;5051222;28;20089;-52
2021/12/03 06:38:22;;;;;;;31.75;17.15;;;;;;;2.20;93.37;100559.41;5050923;28;20474;-52
2021/12/03 06:41:02;;;;;;;30.75;16.25;;;;;;;2.13;93.54;100560.75;5050241;28;20072;-50
2021/12/03 06:43:33;;;;;;;33.70;17.35;;;;;;;2.16;93.49;100564.88;5051846;28;20224;-52
2021/12/03 06:46:03;;;;;;;33.40;15.82;;;;;;;2.12;93.59;100561.69;5051053;28;20053;-50
2021/12/03 06:48:34;;;;;;;38.42;15.75;;;;;;;2.15;93.52;100569.22;5051023;28;20057;-48
2021/12/03 06:51:02;;;;;;;34.97;16.70;;;;;;;2.19;93.13;100570.66;5033484;28;20518;-47
2021/12/03 06:53:54;;;;;;;31.65;15.52;;;;;;;2.18;92.95;100566.44;5031230;28;20484;-50
2021/12/03 06:56:43;;;;;;;32.83;16.45;;;;;;;2.24;92.96;100573.75;5031285;28;20134;-48
2021/12/03 06:59:11;;;;;;;28.55;15.45;;;;;;;2.26;92.90;100569.31;5031267;28;20101;-52
2021/12/03 07:01:38;;;;;;;35.30;15.38;;;;;;;2.23;92.80;100559.19;5031327;28;20053;-53
2021/12/03 07:04:07;;;;;;;29.77;14.55;;;;;;;2.22;92.48;100562.72;5031822;28;20115;-50
2021/12/03 07:06:34;;;;;;;26.05;15.05;;;;;;;2.13;92.88;100563.31;5032294;28;20103;-53
2021/12/03 07:09:02;;;;;;;31.48;15.02;;;;;;;2.12;92.91;100572.00;5032112;28;20481;-53
2021/12/03 07:11:29;;;;;;;30.15;14.63;;;;;;;2.16;92.90;100570.88;5045319;28;20087;-50
2021/12/03 07:13:56;;;;;;;34.95;15.70;;;;;;;2.16;92.91;100581.19;5031995;28;20132;-51
2021/12/03 07:16:22;;;;;;;28.33;14.48;;;;;;;2.13;92.96;100576.22;5031278;28;20482;-53
2021/12/03 07:18:49;;;;;;;33.95;15.20;;;;;;;2.25;92.79;100567.66;5031803;28;20077;-51
2021/12/03 07:21:16;;;;;;;30.42;14.30;;;;;;;2.20;92.61;100563.75;5031404;28;20132;-49
2021/12/03 07:23:43;;;;;;;28.33;13.80;;;;;;;2.32;91.66;100565.50;5031535;28;20447;-53
2021/12/03 07:26:11;;;;;;;22.50;12.23;;;;;;;2.39;90.57;100552.97;5032046;28;20084;-53
2021/12/03 07:28:38;;;;;;;26.23;12.82;;;;;;;2.24;91.17;100542.78;5031320;28;20132;-54
2021/12/03 07:31:05;;;;;;;27.30;14.13;;;;;;;2.29;90.89;100545.88;5031490;28;20140;-54
2021/12/03 07:33:32;;;;;;;28.00;12.27;;;;;;;2.26;90.55;100560.75;5031522;28;20077;-54
2021/12/03 07:35:59;;;;;;;22.88;11.15;;;;;;;2.25;90.49;100565.09;5035279;28;20056;-48
2021/12/03 07:38:25;;;;;;;29.33;11.27;;;;;;;2.15;90.24;100560.66;5058471;23;20083;-47
2021/12/03 07:40:53;;;;;;;24.63;11.23;;;;;;;2.17;90.09;100562.19;5056944;28;20139;-45
2021/12/03 07:43:21;;;;;;;21.10;10.77;;;;;;;2.15;89.97;100561.47;5057033;28;20045;-44
2021/12/03 07:45:49;;;;;;;23.92;10.75;;;;;;;2.15;89.33;100563.22;5057210;28;20135;-46
2021/12/03 07:48:17;;;;;;;27.42;11.38;;;;;;;2.15;89.25;100568.38;5057063;28;20071;-47
2021/12/03 07:50:44;;;;;;;26.27;10.70;;;;;;;2.18;88.92;100563.03;5057072;28;20083;-43
2021/12/03 07:53:14;;;;;;;21.42;10.57;;;;;;;2.21;88.80;100563.63;5057281;28;20131;-45
2021/12/03 07:55:42;;;;;;;23.05;9.52;;;;;;;2.12;88.41;100569.41;5057262;28;20453;-46
2021/12/03 07:58:09;;;;;;;19.85;9.75;;;;;;;2.14;88.12;100562.41;5057211;28;20076;-49
2021/12/03 08:00:38;;;;;;;19.17;9.02;;;;;;;2.19;87.17;100559.50;5056905;28;20131;-44
2021/12/03 08:03:05;;;;;;;19.77;9.18;;;;;;;2.16;87.80;100563.13;5056883;28;20472;-45
2021/12/03 08:05:32;;;;;;;22.50;9.77;;;;;;;2.18;86.93;100569.00;5056773;28;20136;-44
2021/12/03 08:07:59;;;;;;;23.08;9.23;;;;;;;2.17;87.01;100566.53;5057190;28;20106;-50
2021/12/03 08:10:26;;;;;;;21.20;9.05;;;;;;;2.25;86.16;100565.09;5057230;28;20475;-45
2021/12/03 08:12:54;;;;;;;20.58;9.13;;;;;;;2.23;85.89;100564.38;5057142;28;20301;-44
2021/12/03 08:15:21;;;;;;;18.42;9.35;;;;;;;2.24;85.42;100563.44;5056709;28;20491;-50
2021/12/03 08:17:51;;;;;;;15.68;9.43;;;;;;;2.28;85.44;100564.06;5056916;28;20053;-44
2021/12/03 08:20:19;;;;;;;23.42;8.30;;;;;;;2.32;85.03;100571.50;5056350;28;20094;-50
2021/12/03 08:22:46;;;;;;;20.75;8.23;;;;;;;2.40;84.97;100583.03;5056315;28;20546;-46
2021/12/03 08:25:14;;;;;;;17.92;7.28;;;;;;;2.45;83.94;100574.03;5048557;28;20083;-45
2021/12/03 08:27:41;;;;;;;18.70;6.88;;;;;;;2.50;83.39;100578.88;5056325;28;20052;-47
2021/12/03 08:30:11;;;;;;;17.08;7.13;;;;;;;2.46;83.17;100574.84;5056692;28;20045;-49
2021/12/03 08:32:38;;;;;;;18.70;6.53;;;;;;;2.46;83.33;100577.44;5056929;28;20140;-49
2021/12/03 08:35:06;;;;;;;18.40;6.93;;;;;;;2.44;83.22;100580.13;5056703;28;20057;-47
2021/12/03 08:37:33;;;;;;;17.98;6.38;;;;;;;2.53;82.70;100583.84;5056579;28;20045;-48
2021/12/03 08:40:00;;;;;;;14.63;6.45;;;;;;;2.60;82.60;100587.66;5056561;28;20151;-46
2021/12/03 08:42:27;;;;;;;13.98;6.35;;;;;;;2.55;82.66;100576.81;5056535;28;20049;-45
2021/12/03 08:44:53;;;;;;;14.45;6.75;;;;;;;2.59;82.65;100579.06;5056814;28;20122;-47
2021/12/03 08:47:20;;;;;;;18.92;6.82;;;;;;;2.58;83.12;100576.59;5053985;28;20081;-47
2021/12/03 08:49:50;;;;;;;26.98;12.32;;;;;;;2.59;83.61;100576.50;5053076;28;20053;-49
2021/12/03 08:52:28;;;;;;;16.63;10.40;;;;;;;2.60;83.47;100567.81;5053563;28;20077;-48
2021/12/03 08:54:55;;;;;;;18.83;7.43;;;;;;;2.55;83.67;100562.13;5053178;28;20518;-48
2021/12/03 08:57:24;;;;;;;15.02;6.30;;;;;;;2.56;83.40;100562.97;5053281;28;20063;-48
2021/12/03 08:59:52;;;;;;;15.82;6.95;;;;;;;2.70;82.81;100560.25;5053354;28;20511;-45
2021/12/03 09:02:19;;;;;;;18.23;7.63;;;;;;;2.74;83.36;100558.28;5053258;28;20103;-48
2021/12/03 09:04:47;;;;;;;14.27;7.45;;;;;;;2.72;83.57;100558.38;5053265;28;20045;-46
2021/12/03 09:07:14;;;;;;;18.58;8.65;;;;;;;2.78;83.83;100565.72;5053560;28;20048;-46
2021/12/03 09:09:42;;;;;;;16.15;7.57;;;;;;;2.75;83.56;100562.53;5053057;28;20085;-49
2021/12/03 09:12:09;;;;;;;21.63;7.30;;;;;;;2.92;83.36;100559.56;5052970;28;20471;-44
2021/12/03 09:14:39;;;;;;;18.23;6.85;;;;;;;3.00;82.45;100560.66;5052785;28;20160;-45
2021/12/03 09:17:18;;;;;;;16.38;6.10;;;;;;;2.99;81.97;100558.19;5053052;28;20051;-48
2021/12/03 09:19:52;;;;;;;12.82;6.00;;;;;;;3.08;82.25;100561.88;5052743;28;20098;-48
2021/12/03 09:22:27;;;;;;;11.52;5.40;;;;;;;3.12;81.42;100558.97;5053284;28;20060;-46
2021/12/03 09:24:55;;;;;;;14.15;5.32;;;;;;;3.03;81.01;100556.22;5052674;28;20060;-46
2021/12/03 09:27:22;;;;;;;10.50;5.13;;;;;;;3.04;80.22;100555.28;5052675;28;20049;-47
2021/12/03 09:29:51;;;;;;;15.98;5.60;;;;;;;3.14;80.93;100549.34;5053132;28;20108;-47
2021/12/03 09:32:22;;;;;;;21.00;5.10;;;;;;;3.15;79.93;100539.81;5052515;28;20099;-46
2021/12/03 09:34:49;;;;;;;11.48;4.70;;;;;;;3.27;80.13;100544.94;5052902;28;20045;-51
2021/12/03 09:37:16;;;;;;;17.25;5.13;;;;;;;3.14;80.18;100540.75;5052940;28;20052;-47
2021/12/03 09:39:45;;;;;;;15.30;6.40;;;;;;;3.18;80.13;100544.78;5052510;28;20472;-48
2021/12/03 09:42:14;;;;;;;13.40;5.05;;;;;;;3.36;79.16;100538.25;5052488;28;20136;-44
2021/12/03 09:44:43;;;;;;;13.75;4.80;;;;;;;3.32;79.30;100542.00;5052276;28;20475;-47
2021/12/03 09:47:10;;;;;;;12.68;5.30;;;;;;;3.48;79.09;100539.94;5052351;28;20055;-46
2021/12/03 09:49:38;;;;;;;16.58;6.25;;;;;;;3.40;78.61;100531.91;5052009;28;20472;-47
2021/12/03 09:52:15;;;;;;;13.70;5.95;;;;;;;3.43;79.93;100529.09;5052179;28;20475;-47
2021/12/03 09:54:45;;;;;;;16.20;5.72;;;;;;;3.55;78.67;100533.38;5052229;28;20056;-45
2021/12/03 09:57:29;;;;;;;13.85;5.50;;;;;;;3.63;79.31;100525.06;5052311;28;20148;-47
2021/12/03 10:00:15;;;;;;;17.38;6.88;;;;;;;3.64;78.44;100531.88;5052454;28;20123;-47
2021/12/03 10:13:46;;;;;;;13.88;5.22;;;;;;;3.48;79.57;100539.94;5051763;28;20048;-48
2021/12/03 10:16:36;;;;;;;14.98;5.47;;;;;;;3.49;79.08;100530.41;5052171;28;20068;-47
2021/12/03 10:19:23;;;;;;;21.52;5.53;;;;;;;3.45;79.54;100537.56;5052160;28;20049;-51
2021/12/03 10:22:15;;;;;;;13.60;6.10;;;;;;;3.39;79.42;100532.03;5051969;28;20056;-46
2021/12/03 10:25:20;;;;;;;14.95;5.43;;;;;;;3.48;79.73;100515.84;5051792;28;20088;-46
2021/12/03 10:30:57;;;;;;;13.23;5.40;;;;;;;3.55;79.37;100507.50;5050579;28;20048;-48
2021/12/03 10:33:40;;;;;;;16.48;4.93;;;;;;;3.52;79.56;100497.38;5051617;28;20079;-46
2021/12/03 10:36:27;;;;;;;16.05;6.38;;;;;;;3.58;79.69;100499.53;5051699;28;20057;-48
2021/12/03 10:39:12;;;;;;;13.73;5.30;;;;;;;3.71;80.44;100502.03;5051627;28;20479;-48
2021/12/03 10:41:52;;;;;;;12.80;5.30;;;;;;;3.78;79.56;100497.22;5051814;28;20059;-47
2021/12/03 10:44:33;;;;;;;11.27;5.30;;;;;;;3.83;79.58;100501.06;5051357;28;20268;-49
2021/12/03 10:47:12;;;;;;;15.15;5.53;;;;;;;3.93;77.67;100486.50;5051602;28;20045;-47
2021/12/03 10:52:28;;;;;;;18.58;5.07;;;;;;;4.08;76.63;100470.75;5043947;28;20511;-50
2021/12/03 10:55:18;;;;;;;14.35;4.90;;;;;;;3.98;76.19;100474.03;5051300;28;20454;-51
2021/12/03 11:18:18;;;;;;;10.95;4.70;;;;;;;4.04;76.91;100420.97;5043571;28;20365;-46
2021/12/03 11:35:36;;;;;;;10.90;4.90;;;;;;;4.07;74.42;100392.25;5046962;28;20051;-45
2021/12/03 13:14:50;;;;;;;8.90;4.82;;;;;;;4.78;72.66;100253.44;5033425;28;20514;-49
2021/12/03 13:20:37;;;;;;;10.15;4.53;;;;;;;4.79;72.52;100246.50;5042507;28;20137;-49
2021/12/03 14:00:10;;;;;;;9.23;4.78;;;;;;;4.53;72.92;100200.25;4993368;28;20042;-45
2021/12/03 14:36:53;;;;;;;8.38;6.07;;;;;;;4.37;74.63;100165.38;4990530;28;20062;-47
2021/12/03 14:42:33;;;;;;;11.93;7.90;;;;;;;4.42;74.76;100163.22;5093736;27;20914;-43
2021/12/03 14:45:07;;;;;;;9.20;5.50;;;;;;;4.43;74.64;100157.09;5046704;28;20053;-47
2021/12/03 14:50:36;;;;;;;8.68;5.32;;;;;;;4.30;75.32;100157.28;5068520;28;20080;-49
2021/12/03 14:55:52;;;;;;;8.50;5.90;;;;;;;4.50;75.76;100137.50;5068032;28;20044;-46
2021/12/03 14:58:22;;;;;;;14.82;6.60;;;;;;;4.28;75.47;100144.47;5068398;28;20148;-46
2021/12/03 15:00:55;;;;;;;12.65;7.47;;;;;;;4.36;76.06;100137.84;5068475;28;20067;-44
2021/12/03 15:03:41;;;;;;;8.18;4.63;;;;;;;4.26;75.31;100136.00;5068382;28;20053;-47
2021/12/03 15:08:53;;;;;;;7.50;5.10;;;;;;;4.24;77.53;100131.94;5066009;28;20052;-47
2021/12/03 15:11:58;;;;;;;6.85;5.00;;;;;;;4.37;78.44;100136.88;5068254;28;20100;-45
2021/12/03 15:25:50;;;;;;;7.95;4.80;;;;;;;3.88;81.99;100135.75;5067303;28;20063;-47
2021/12/03 15:31:07;;;;;;;7.10;4.60;;;;;;;3.90;82.64;100139.88;5060264;28;20406;-46
2021/12/03 15:33:51;;;;;;;10.40;4.90;;;;;;;3.78;82.68;100146.03;5067820;28;20045;-45
2021/12/03 15:36:23;;;;;;;7.80;5.10;;;;;;;3.84;84.17;100142.97;5067858;28;20475;-49
2021/12/03 15:39:05;;;;;;;9.60;5.50;;;;;;;3.67;84.58;100138.34;5067456;28;20048;-51